sensor_id;sensor_type;location;lat;lon;timestamp;temperature;humidity
76293;DHT22;67256;51.154;4.164;2023-05-03T00:00:34;11.40;54.50
76293;DHT22;67256;51.154;4.164;2023-05-03T00:03:00;11.40;54.50
76293;DHT22;67256;51.154;4.164;2023-05-03T00:05:29;11.40;54.70
76293;DHT22;67256;51.154;4.164;2023-05-03T00:07:55;11.30;54.90
76293;DHT22;67256;51.154;4.164;2023-05-03T00:10:21;11.30;55.00
76293;DHT22;67256;51.154;4.164;2023-05-03T00:12:50;11.30;55.00
76293;DHT22;67256;51.154;4.164;2023-05-03T00:15:15;11.20;55.30
76293;DHT22;67256;51.154;4.164;2023-05-03T00:17:42;11.20;55.40
76293;DHT22;67256;51.154;4.164;2023-05-03T00:20:08;11.20;55.60
76293;DHT22;67256;51.154;4.164;2023-05-03T00:22:34;11.20;55.50
76293;DHT22;67256;51.154;4.164;2023-05-03T00:25:01;11.00;55.90
76293;DHT22;67256;51.154;4.164;2023-05-03T00:27:27;11.00;56.20
76293;DHT22;67256;51.154;4.164;2023-05-03T00:29:53;11.00;56.10
76293;DHT22;67256;51.154;4.164;2023-05-03T00:32:19;11.10;56.00
76293;DHT22;67256;51.154;4.164;2023-05-03T00:34:53;11.10;56.50
76293;DHT22;67256;51.154;4.164;2023-05-03T00:37:19;11.10;56.00
76293;DHT22;67256;51.154;4.164;2023-05-03T00:39:45;11.00;56.10
76293;DHT22;67256;51.154;4.164;2023-05-03T00:42:11;11.00;56.10
76293;DHT22;67256;51.154;4.164;2023-05-03T00:44:36;11.00;56.10
76293;DHT22;67256;51.154;4.164;2023-05-03T00:47:02;11.10;55.90
76293;DHT22;67256;51.154;4.164;2023-05-03T00:49:29;11.10;56.00
76293;DHT22;67256;51.154;4.164;2023-05-03T00:51:55;11.10;55.80
76293;DHT22;67256;51.154;4.164;2023-05-03T00:54:25;11.10;56.40
76293;DHT22;67256;51.154;4.164;2023-05-03T00:56:51;11.10;56.00
76293;DHT22;67256;51.154;4.164;2023-05-03T00:59:21;11.10;56.10
76293;DHT22;67256;51.154;4.164;2023-05-03T01:01:47;11.00;56.10
76293;DHT22;67256;51.154;4.164;2023-05-03T01:04:14;11.00;56.10
76293;DHT22;67256;51.154;4.164;2023-05-03T01:06:44;11.00;56.30
76293;DHT22;67256;51.154;4.164;2023-05-03T01:09:20;10.90;56.40
76293;DHT22;67256;51.154;4.164;2023-05-03T01:12:18;10.80;56.70
76293;DHT22;67256;51.154;4.164;2023-05-03T01:17:27;10.70;57.10
76293;DHT22;67256;51.154;4.164;2023-05-03T01:20:04;10.60;57.60
76293;DHT22;67256;51.154;4.164;2023-05-03T01:25:12;10.60;57.80
76293;DHT22;67256;51.154;4.164;2023-05-03T01:27:39;10.50;57.80
76293;DHT22;67256;51.154;4.164;2023-05-03T01:30:08;10.50;58.00
76293;DHT22;67256;51.154;4.164;2023-05-03T01:35:08;10.40;58.30
76293;DHT22;67256;51.154;4.164;2023-05-03T01:37:47;10.40;58.60
76293;DHT22;67256;51.154;4.164;2023-05-03T01:40:14;10.40;58.50
76293;DHT22;67256;51.154;4.164;2023-05-03T01:42:44;10.50;58.30
76293;DHT22;67256;51.154;4.164;2023-05-03T01:45:11;10.40;58.30
76293;DHT22;67256;51.154;4.164;2023-05-03T01:47:37;10.40;58.40
76293;DHT22;67256;51.154;4.164;2023-05-03T01:50:03;10.40;58.60
76293;DHT22;67256;51.154;4.164;2023-05-03T01:52:29;10.40;58.50
76293;DHT22;67256;51.154;4.164;2023-05-03T01:55:02;10.30;58.60
76293;DHT22;67256;51.154;4.164;2023-05-03T01:57:28;10.30;58.80
76293;DHT22;67256;51.154;4.164;2023-05-03T01:59:53;10.30;59.00
76293;DHT22;67256;51.154;4.164;2023-05-03T02:02:19;10.20;59.00
76293;DHT22;67256;51.154;4.164;2023-05-03T02:04:45;10.30;58.80
76293;DHT22;67256;51.154;4.164;2023-05-03T02:07:13;10.40;58.60
76293;DHT22;67256;51.154;4.164;2023-05-03T02:09:39;10.40;58.30
76293;DHT22;67256;51.154;4.164;2023-05-03T02:12:04;10.30;58.60
76293;DHT22;67256;51.154;4.164;2023-05-03T02:14:31;10.40;58.50
76293;DHT22;67256;51.154;4.164;2023-05-03T02:16:57;10.40;58.40
76293;DHT22;67256;51.154;4.164;2023-05-03T02:19:24;10.30;58.60
76293;DHT22;67256;51.154;4.164;2023-05-03T02:21:52;10.20;58.70
76293;DHT22;67256;51.154;4.164;2023-05-03T02:24:21;10.20;59.00
76293;DHT22;67256;51.154;4.164;2023-05-03T02:26:47;10.20;58.90
76293;DHT22;67256;51.154;4.164;2023-05-03T02:29:16;10.20;59.00
76293;DHT22;67256;51.154;4.164;2023-05-03T02:31:41;10.20;59.00
76293;DHT22;67256;51.154;4.164;2023-05-03T02:34:08;10.20;58.80
76293;DHT22;67256;51.154;4.164;2023-05-03T02:36:33;10.30;58.70
76293;DHT22;67256;51.154;4.164;2023-05-03T02:38:59;10.30;58.50
76293;DHT22;67256;51.154;4.164;2023-05-03T02:41:25;10.30;58.50
76293;DHT22;67256;51.154;4.164;2023-05-03T02:43:51;10.30;58.50
76293;DHT22;67256;51.154;4.164;2023-05-03T02:46:17;10.40;58.50
76293;DHT22;67256;51.154;4.164;2023-05-03T02:48:42;10.40;58.60
76293;DHT22;67256;51.154;4.164;2023-05-03T02:51:08;10.40;58.60
76293;DHT22;67256;51.154;4.164;2023-05-03T02:53:34;10.30;58.30
76293;DHT22;67256;51.154;4.164;2023-05-03T02:56:00;10.30;58.40
76293;DHT22;67256;51.154;4.164;2023-05-03T02:58:26;10.20;58.60
76293;DHT22;67256;51.154;4.164;2023-05-03T03:00:52;10.30;58.60
76293;DHT22;67256;51.154;4.164;2023-05-03T03:03:18;10.20;58.30
76293;DHT22;67256;51.154;4.164;2023-05-03T03:05:43;10.20;58.50
76293;DHT22;67256;51.154;4.164;2023-05-03T03:08:09;10.10;58.50
76293;DHT22;67256;51.154;4.164;2023-05-03T03:10:35;10.10;58.70
76293;DHT22;67256;51.154;4.164;2023-05-03T03:13:01;10.10;58.80
76293;DHT22;67256;51.154;4.164;2023-05-03T03:15:27;10.10;58.70
76293;DHT22;67256;51.154;4.164;2023-05-03T03:17:55;10.10;58.50
76293;DHT22;67256;51.154;4.164;2023-05-03T03:20:23;10.10;58.40
76293;DHT22;67256;51.154;4.164;2023-05-03T03:22:49;10.10;58.50
76293;DHT22;67256;51.154;4.164;2023-05-03T03:25:15;10.00;58.80
76293;DHT22;67256;51.154;4.164;2023-05-03T03:27:40;9.90;58.90
76293;DHT22;67256;51.154;4.164;2023-05-03T03:30:09;9.90;59.00
76293;DHT22;67256;51.154;4.164;2023-05-03T03:32:36;9.80;59.40
76293;DHT22;67256;51.154;4.164;2023-05-03T03:35:04;9.70;59.50
76293;DHT22;67256;51.154;4.164;2023-05-03T03:37:31;9.70;59.80
76293;DHT22;67256;51.154;4.164;2023-05-03T03:39:57;9.70;60.00
76293;DHT22;67256;51.154;4.164;2023-05-03T03:42:22;9.80;59.70
76293;DHT22;67256;51.154;4.164;2023-05-03T03:44:50;9.80;59.60
76293;DHT22;67256;51.154;4.164;2023-05-03T03:47:16;9.80;59.60
76293;DHT22;67256;51.154;4.164;2023-05-03T03:49:45;9.70;59.80
76293;DHT22;67256;51.154;4.164;2023-05-03T03:52:11;9.60;60.40
76293;DHT22;67256;51.154;4.164;2023-05-03T03:54:36;9.60;60.50
76293;DHT22;67256;51.154;4.164;2023-05-03T03:57:05;9.60;61.00
76293;DHT22;67256;51.154;4.164;2023-05-03T03:59:30;9.50;61.20
76293;DHT22;67256;51.154;4.164;2023-05-03T04:01:56;9.50;61.30
76293;DHT22;67256;51.154;4.164;2023-05-03T04:04:22;9.50;61.30
76293;DHT22;67256;51.154;4.164;2023-05-03T04:06:48;9.60;60.90
76293;DHT22;67256;51.154;4.164;2023-05-03T04:09:17;9.60;60.50
76293;DHT22;67256;51.154;4.164;2023-05-03T04:11:43;9.50;60.90
76293;DHT22;67256;51.154;4.164;2023-05-03T04:14:09;9.50;61.60
76293;DHT22;67256;51.154;4.164;2023-05-03T04:16:35;9.40;61.30
76293;DHT22;67256;51.154;4.164;2023-05-03T04:19:01;9.40;61.30
76293;DHT22;67256;51.154;4.164;2023-05-03T04:21:28;9.50;61.00
76293;DHT22;67256;51.154;4.164;2023-05-03T04:23:54;9.40;61.30
76293;DHT22;67256;51.154;4.164;2023-05-03T04:26:19;9.20;61.70
76293;DHT22;67256;51.154;4.164;2023-05-03T04:28:52;9.10;62.40
76293;DHT22;67256;51.154;4.164;2023-05-03T04:31:18;9.20;62.10
76293;DHT22;67256;51.154;4.164;2023-05-03T04:33:45;9.30;61.60
76293;DHT22;67256;51.154;4.164;2023-05-03T04:36:11;9.30;61.30
76293;DHT22;67256;51.154;4.164;2023-05-03T04:38:41;9.10;62.40
76293;DHT22;67256;51.154;4.164;2023-05-03T04:41:10;9.00;63.00
76293;DHT22;67256;51.154;4.164;2023-05-03T04:43:38;8.80;63.50
76293;DHT22;67256;51.154;4.164;2023-05-03T04:46:03;8.80;64.00
76293;DHT22;67256;51.154;4.164;2023-05-03T04:48:32;8.90;63.40
76293;DHT22;67256;51.154;4.164;2023-05-03T04:51:03;9.00;63.00
76293;DHT22;67256;51.154;4.164;2023-05-03T04:53:28;9.00;62.80
76293;DHT22;67256;51.154;4.164;2023-05-03T04:55:57;9.00;62.90
76293;DHT22;67256;51.154;4.164;2023-05-03T04:58:27;9.00;62.90
76293;DHT22;67256;51.154;4.164;2023-05-03T05:00:56;9.20;62.80
76293;DHT22;67256;51.154;4.164;2023-05-03T05:03:24;9.30;62.00
76293;DHT22;67256;51.154;4.164;2023-05-03T05:05:50;9.30;61.90
76293;DHT22;67256;51.154;4.164;2023-05-03T05:08:15;9.20;62.10
76293;DHT22;67256;51.154;4.164;2023-05-03T05:10:44;9.30;62.30
76293;DHT22;67256;51.154;4.164;2023-05-03T05:13:10;9.10;62.60
76293;DHT22;67256;51.154;4.164;2023-05-03T05:15:36;9.20;62.50
76293;DHT22;67256;51.154;4.164;2023-05-03T05:18:01;9.20;62.50
76293;DHT22;67256;51.154;4.164;2023-05-03T05:20:27;9.40;62.00
76293;DHT22;67256;51.154;4.164;2023-05-03T05:22:53;9.50;61.50
76293;DHT22;67256;51.154;4.164;2023-05-03T05:25:19;9.50;61.70
76293;DHT22;67256;51.154;4.164;2023-05-03T05:27:45;9.60;61.70
76293;DHT22;67256;51.154;4.164;2023-05-03T05:30:11;9.70;61.10
76293;DHT22;67256;51.154;4.164;2023-05-03T05:32:36;9.60;61.50
76293;DHT22;67256;51.154;4.164;2023-05-03T05:35:02;9.60;61.40
76293;DHT22;67256;51.154;4.164;2023-05-03T05:37:29;9.50;62.10
76293;DHT22;67256;51.154;4.164;2023-05-03T05:39:54;9.50;62.60
76293;DHT22;67256;51.154;4.164;2023-05-03T05:42:20;9.70;61.90
76293;DHT22;67256;51.154;4.164;2023-05-03T05:44:46;9.70;61.60
76293;DHT22;67256;51.154;4.164;2023-05-03T05:47:12;9.80;61.40
76293;DHT22;67256;51.154;4.164;2023-05-03T05:49:37;9.80;61.50
76293;DHT22;67256;51.154;4.164;2023-05-03T05:52:03;9.90;61.30
76293;DHT22;67256;51.154;4.164;2023-05-03T05:54:32;9.80;61.80
76293;DHT22;67256;51.154;4.164;2023-05-03T05:57:01;9.80;62.00
76293;DHT22;67256;51.154;4.164;2023-05-03T05:59:27;9.90;61.50
76293;DHT22;67256;51.154;4.164;2023-05-03T06:01:54;10.00;61.20
76293;DHT22;67256;51.154;4.164;2023-05-03T06:04:21;10.10;61.10
76293;DHT22;67256;51.154;4.164;2023-05-03T06:06:47;10.00;61.30
76293;DHT22;67256;51.154;4.164;2023-05-03T06:09:13;10.10;61.20
76293;DHT22;67256;51.154;4.164;2023-05-03T06:11:39;10.10;61.40
76293;DHT22;67256;51.154;4.164;2023-05-03T06:14:04;10.00;61.40
76293;DHT22;67256;51.154;4.164;2023-05-03T06:16:36;9.90;61.60
76293;DHT22;67256;51.154;4.164;2023-05-03T06:19:06;9.90;61.90
76293;DHT22;67256;51.154;4.164;2023-05-03T06:21:32;10.00;61.40
76293;DHT22;67256;51.154;4.164;2023-05-03T06:23:59;10.00;61.20
76293;DHT22;67256;51.154;4.164;2023-05-03T06:26:24;9.90;61.40
76293;DHT22;67256;51.154;4.164;2023-05-03T06:28:50;9.80;61.70
76293;DHT22;67256;51.154;4.164;2023-05-03T06:31:16;9.80;62.00
76293;DHT22;67256;51.154;4.164;2023-05-03T06:33:42;9.80;61.90
76293;DHT22;67256;51.154;4.164;2023-05-03T06:36:08;9.90;61.90
76293;DHT22;67256;51.154;4.164;2023-05-03T06:38:34;9.90;62.20
76293;DHT22;67256;51.154;4.164;2023-05-03T06:40:59;10.00;61.40
76293;DHT22;67256;51.154;4.164;2023-05-03T06:43:25;10.00;60.90
76293;DHT22;67256;51.154;4.164;2023-05-03T06:45:51;10.00;61.10
76293;DHT22;67256;51.154;4.164;2023-05-03T06:48:20;10.00;61.40
76293;DHT22;67256;51.154;4.164;2023-05-03T06:50:46;10.00;61.40
76293;DHT22;67256;51.154;4.164;2023-05-03T06:53:12;10.00;62.00
76293;DHT22;67256;51.154;4.164;2023-05-03T06:55:37;10.10;60.60
76293;DHT22;67256;51.154;4.164;2023-05-03T06:58:04;10.10;60.80
76293;DHT22;67256;51.154;4.164;2023-05-03T07:00:34;10.10;61.40
76293;DHT22;67256;51.154;4.164;2023-05-03T07:03:00;10.20;60.90
76293;DHT22;67256;51.154;4.164;2023-05-03T07:05:26;10.20;60.90
76293;DHT22;67256;51.154;4.164;2023-05-03T07:07:51;10.10;60.40
76293;DHT22;67256;51.154;4.164;2023-05-03T07:10:17;10.10;61.10
76293;DHT22;67256;51.154;4.164;2023-05-03T07:12:43;10.10;61.50
76293;DHT22;67256;51.154;4.164;2023-05-03T07:15:09;10.10;61.20
76293;DHT22;67256;51.154;4.164;2023-05-03T07:17:34;10.30;60.10
76293;DHT22;67256;51.154;4.164;2023-05-03T07:20:00;10.40;59.90
76293;DHT22;67256;51.154;4.164;2023-05-03T07:22:26;10.50;60.10
76293;DHT22;67256;51.154;4.164;2023-05-03T07:24:52;10.30;60.10
76293;DHT22;67256;51.154;4.164;2023-05-03T07:27:24;10.20;59.40
76293;DHT22;67256;51.154;4.164;2023-05-03T07:29:50;10.20;60.30
76293;DHT22;67256;51.154;4.164;2023-05-03T07:32:16;10.30;60.30
76293;DHT22;67256;51.154;4.164;2023-05-03T07:34:41;10.30;59.50
76293;DHT22;67256;51.154;4.164;2023-05-03T07:37:07;10.30;59.00
76293;DHT22;67256;51.154;4.164;2023-05-03T07:39:33;10.20;59.20
76293;DHT22;67256;51.154;4.164;2023-05-03T07:41:59;10.20;59.80
76293;DHT22;67256;51.154;4.164;2023-05-03T07:44:24;10.10;59.00
76293;DHT22;67256;51.154;4.164;2023-05-03T07:46:50;10.20;59.10
76293;DHT22;67256;51.154;4.164;2023-05-03T07:49:16;10.20;58.70
76293;DHT22;67256;51.154;4.164;2023-05-03T07:51:41;10.30;58.90
76293;DHT22;67256;51.154;4.164;2023-05-03T07:54:07;10.30;58.90
76293;DHT22;67256;51.154;4.164;2023-05-03T07:56:33;10.40;58.80
76293;DHT22;67256;51.154;4.164;2023-05-03T07:58:59;10.40;58.20
76293;DHT22;67256;51.154;4.164;2023-05-03T08:01:25;10.30;59.90
76293;DHT22;67256;51.154;4.164;2023-05-03T08:03:51;10.30;60.00
76293;DHT22;67256;51.154;4.164;2023-05-03T08:06:17;10.30;59.50
76293;DHT22;67256;51.154;4.164;2023-05-03T08:08:43;10.40;59.60
76293;DHT22;67256;51.154;4.164;2023-05-03T08:11:09;10.40;59.40
76293;DHT22;67256;51.154;4.164;2023-05-03T08:13:35;10.50;59.20
76293;DHT22;67256;51.154;4.164;2023-05-03T08:16:01;10.70;59.00
76293;DHT22;67256;51.154;4.164;2023-05-03T08:18:28;10.90;58.80
76293;DHT22;67256;51.154;4.164;2023-05-03T08:20:53;10.90;59.00
76293;DHT22;67256;51.154;4.164;2023-05-03T08:23:22;10.90;59.20
76293;DHT22;67256;51.154;4.164;2023-05-03T08:25:48;10.90;58.80
76293;DHT22;67256;51.154;4.164;2023-05-03T08:28:14;10.90;58.40
76293;DHT22;67256;51.154;4.164;2023-05-03T08:30:40;10.90;58.60
76293;DHT22;67256;51.154;4.164;2023-05-03T08:33:06;11.00;58.70
76293;DHT22;67256;51.154;4.164;2023-05-03T08:35:34;11.10;58.50
76293;DHT22;67256;51.154;4.164;2023-05-03T08:38:00;11.20;57.60
76293;DHT22;67256;51.154;4.164;2023-05-03T08:40:27;11.30;57.20
76293;DHT22;67256;51.154;4.164;2023-05-03T08:42:59;11.30;57.10
76293;DHT22;67256;51.154;4.164;2023-05-03T08:45:34;11.20;57.10
76293;DHT22;67256;51.154;4.164;2023-05-03T08:48:00;11.30;56.50
76293;DHT22;67256;51.154;4.164;2023-05-03T08:50:30;11.30;57.20
76293;DHT22;67256;51.154;4.164;2023-05-03T08:52:58;11.30;56.30
76293;DHT22;67256;51.154;4.164;2023-05-03T08:55:23;11.30;56.30
76293;DHT22;67256;51.154;4.164;2023-05-03T08:57:50;11.40;56.50
76293;DHT22;67256;51.154;4.164;2023-05-03T09:00:19;11.30;55.60
76293;DHT22;67256;51.154;4.164;2023-05-03T09:02:51;11.30;56.40
76293;DHT22;67256;51.154;4.164;2023-05-03T09:08:05;11.40;56.50
76293;DHT22;67256;51.154;4.164;2023-05-03T09:10:43;11.50;55.00
76293;DHT22;67256;51.154;4.164;2023-05-03T09:13:09;11.50;54.50
76293;DHT22;67256;51.154;4.164;2023-05-03T09:15:36;11.60;54.60
76293;DHT22;67256;51.154;4.164;2023-05-03T09:18:15;11.70;54.90
76293;DHT22;67256;51.154;4.164;2023-05-03T09:20:43;11.70;55.60
76293;DHT22;67256;51.154;4.164;2023-05-03T09:25:58;11.70;55.60
76293;DHT22;67256;51.154;4.164;2023-05-03T09:28:24;11.50;54.60
76293;DHT22;67256;51.154;4.164;2023-05-03T09:31:04;11.50;55.30
76293;DHT22;67256;51.154;4.164;2023-05-03T09:33:36;11.60;54.70
76293;DHT22;67256;51.154;4.164;2023-05-03T09:36:03;11.70;54.50
76293;DHT22;67256;51.154;4.164;2023-05-03T09:38:32;11.80;54.90
76293;DHT22;67256;51.154;4.164;2023-05-03T09:41:02;11.80;54.00
76293;DHT22;67256;51.154;4.164;2023-05-03T09:43:30;11.80;53.30
76293;DHT22;67256;51.154;4.164;2023-05-03T09:46:12;11.80;53.80
76293;DHT22;67256;51.154;4.164;2023-05-03T09:48:39;12.00;54.90
76293;DHT22;67256;51.154;4.164;2023-05-03T09:51:05;12.10;53.70
76293;DHT22;67256;51.154;4.164;2023-05-03T09:53:35;12.10;52.90
76293;DHT22;67256;51.154;4.164;2023-05-03T09:56:02;12.10;53.00
76293;DHT22;67256;51.154;4.164;2023-05-03T09:58:28;11.90;53.40
76293;DHT22;67256;51.154;4.164;2023-05-03T10:00:59;12.00;54.10
76293;DHT22;67256;51.154;4.164;2023-05-03T10:06:01;12.20;54.10
76293;DHT22;67256;51.154;4.164;2023-05-03T10:08:40;12.20;52.70
76293;DHT22;67256;51.154;4.164;2023-05-03T10:11:08;12.20;53.10
76293;DHT22;67256;51.154;4.164;2023-05-03T10:13:35;12.20;53.50
76293;DHT22;67256;51.154;4.164;2023-05-03T10:16:05;12.30;53.10
76293;DHT22;67256;51.154;4.164;2023-05-03T10:18:32;12.40;52.80
76293;DHT22;67256;51.154;4.164;2023-05-03T10:21:08;12.50;52.60
76293;DHT22;67256;51.154;4.164;2023-05-03T10:24:12;12.40;51.60
76293;DHT22;67256;51.154;4.164;2023-05-03T10:26:43;12.30;51.30
76293;DHT22;67256;51.154;4.164;2023-05-03T10:32:32;12.20;52.00
76293;DHT22;67256;51.154;4.164;2023-05-03T10:35:12;12.30;53.40
76293;DHT22;67256;51.154;4.164;2023-05-03T10:37:40;12.40;52.60
76293;DHT22;67256;51.154;4.164;2023-05-03T10:40:11;12.60;52.00
76293;DHT22;67256;51.154;4.164;2023-05-03T10:42:38;12.50;51.10
76293;DHT22;67256;51.154;4.164;2023-05-03T10:45:06;12.50;51.50
76293;DHT22;67256;51.154;4.164;2023-05-03T10:47:34;12.60;51.30
76293;DHT22;67256;51.154;4.164;2023-05-03T10:55:17;12.60;51.70
76293;DHT22;67256;51.154;4.164;2023-05-03T10:57:45;12.70;52.10
76293;DHT22;67256;51.154;4.164;2023-05-03T11:05:35;12.40;52.60
76293;DHT22;67256;51.154;4.164;2023-05-03T11:08:12;12.30;51.80
76293;DHT22;67256;51.154;4.164;2023-05-03T11:10:38;12.40;50.90
76293;DHT22;67256;51.154;4.164;2023-05-03T11:13:05;12.50;50.10
76293;DHT22;67256;51.154;4.164;2023-05-03T11:15:31;12.60;51.40
76293;DHT22;67256;51.154;4.164;2023-05-03T11:17:58;12.70;50.10
76293;DHT22;67256;51.154;4.164;2023-05-03T11:20:24;12.70;49.60
76293;DHT22;67256;51.154;4.164;2023-05-03T11:22:50;12.70;50.10
76293;DHT22;67256;51.154;4.164;2023-05-03T11:25:17;12.70;50.40
76293;DHT22;67256;51.154;4.164;2023-05-03T11:27:43;12.70;49.70
76293;DHT22;67256;51.154;4.164;2023-05-03T11:30:09;12.70;51.20
76293;DHT22;67256;51.154;4.164;2023-05-03T11:32:35;12.60;49.90
76293;DHT22;67256;51.154;4.164;2023-05-03T11:35:01;12.60;50.00
76293;DHT22;67256;51.154;4.164;2023-05-03T11:37:31;12.70;49.70
76293;DHT22;67256;51.154;4.164;2023-05-03T11:39:58;12.80;50.70
76293;DHT22;67256;51.154;4.164;2023-05-03T11:42:24;12.80;49.70
76293;DHT22;67256;51.154;4.164;2023-05-03T11:44:54;12.70;49.50
76293;DHT22;67256;51.154;4.164;2023-05-03T11:47:21;12.80;49.30
76293;DHT22;67256;51.154;4.164;2023-05-03T11:49:54;12.90;50.70
76293;DHT22;67256;51.154;4.164;2023-05-03T11:52:22;13.00;51.50
76293;DHT22;67256;51.154;4.164;2023-05-03T11:54:48;13.10;49.30
76293;DHT22;67256;51.154;4.164;2023-05-03T11:57:14;13.10;49.40
76293;DHT22;67256;51.154;4.164;2023-05-03T11:59:40;13.00;49.80
76293;DHT22;67256;51.154;4.164;2023-05-03T12:02:08;13.00;49.50
76293;DHT22;67256;51.154;4.164;2023-05-03T12:04:36;13.00;50.10
76293;DHT22;67256;51.154;4.164;2023-05-03T12:07:06;13.10;50.70
76293;DHT22;67256;51.154;4.164;2023-05-03T12:09:34;13.20;49.80
76293;DHT22;67256;51.154;4.164;2023-05-03T12:12:00;13.30;48.50
76293;DHT22;67256;51.154;4.164;2023-05-03T12:14:58;13.30;47.40
76293;DHT22;67256;51.154;4.164;2023-05-03T12:17:38;13.40;48.70
76293;DHT22;67256;51.154;4.164;2023-05-03T12:20:19;13.40;49.00
76293;DHT22;67256;51.154;4.164;2023-05-03T12:22:53;13.50;48.30
76293;DHT22;67256;51.154;4.164;2023-05-03T12:25:20;13.60;49.10
76293;DHT22;67256;51.154;4.164;2023-05-03T12:27:46;13.60;48.90
76293;DHT22;67256;51.154;4.164;2023-05-03T12:30:12;13.70;48.60
76293;DHT22;67256;51.154;4.164;2023-05-03T12:32:39;13.80;47.40
76293;DHT22;67256;51.154;4.164;2023-05-03T12:35:06;14.00;47.60
76293;DHT22;67256;51.154;4.164;2023-05-03T12:37:34;14.00;47.00
76293;DHT22;67256;51.154;4.164;2023-05-03T12:40:04;13.90;47.20
76293;DHT22;67256;51.154;4.164;2023-05-03T12:42:30;14.10;47.60
76293;DHT22;67256;51.154;4.164;2023-05-03T12:44:59;14.00;47.80
76293;DHT22;67256;51.154;4.164;2023-05-03T12:47:25;13.90;47.70
76293;DHT22;67256;51.154;4.164;2023-05-03T12:49:52;13.80;48.50
76293;DHT22;67256;51.154;4.164;2023-05-03T12:52:17;13.80;49.80
76293;DHT22;67256;51.154;4.164;2023-05-03T12:54:43;14.00;50.20
76293;DHT22;67256;51.154;4.164;2023-05-03T12:57:11;13.80;47.40
76293;DHT22;67256;51.154;4.164;2023-05-03T12:59:39;13.90;47.80
76293;DHT22;67256;51.154;4.164;2023-05-03T13:02:12;14.00;48.50
76293;DHT22;67256;51.154;4.164;2023-05-03T13:04:38;14.10;48.60
76293;DHT22;67256;51.154;4.164;2023-05-03T13:07:04;14.30;48.10
76293;DHT22;67256;51.154;4.164;2023-05-03T13:09:30;14.30;47.90
76293;DHT22;67256;51.154;4.164;2023-05-03T13:11:56;14.40;47.80
76293;DHT22;67256;51.154;4.164;2023-05-03T13:14:22;14.40;47.80
76293;DHT22;67256;51.154;4.164;2023-05-03T13:16:49;14.30;46.40
76293;DHT22;67256;51.154;4.164;2023-05-03T13:19:15;14.30;46.50
76293;DHT22;67256;51.154;4.164;2023-05-03T13:21:41;14.40;45.60
76293;DHT22;67256;51.154;4.164;2023-05-03T13:24:08;14.50;47.10
76293;DHT22;67256;51.154;4.164;2023-05-03T13:26:33;14.50;47.00
76293;DHT22;67256;51.154;4.164;2023-05-03T13:28:59;14.50;46.00
76293;DHT22;67256;51.154;4.164;2023-05-03T13:31:25;14.40;47.00
76293;DHT22;67256;51.154;4.164;2023-05-03T13:33:53;14.30;45.70
76293;DHT22;67256;51.154;4.164;2023-05-03T13:36:19;14.50;45.50
76293;DHT22;67256;51.154;4.164;2023-05-03T13:38:47;14.50;44.50
76293;DHT22;67256;51.154;4.164;2023-05-03T13:41:14;14.60;46.30
76293;DHT22;67256;51.154;4.164;2023-05-03T13:43:40;14.60;47.50
76293;DHT22;67256;51.154;4.164;2023-05-03T13:46:07;14.70;45.50
76293;DHT22;67256;51.154;4.164;2023-05-03T13:48:33;14.50;43.70
76293;DHT22;67256;51.154;4.164;2023-05-03T13:50:59;14.50;45.60
76293;DHT22;67256;51.154;4.164;2023-05-03T13:53:25;14.40;44.50
76293;DHT22;67256;51.154;4.164;2023-05-03T13:55:51;14.50;46.00
76293;DHT22;67256;51.154;4.164;2023-05-03T13:58:17;14.50;46.90
76293;DHT22;67256;51.154;4.164;2023-05-03T14:00:43;14.60;46.40
76293;DHT22;67256;51.154;4.164;2023-05-03T14:03:09;14.60;46.00
76293;DHT22;67256;51.154;4.164;2023-05-03T14:05:36;14.70;45.80
76293;DHT22;67256;51.154;4.164;2023-05-03T14:08:02;14.70;45.70
76293;DHT22;67256;51.154;4.164;2023-05-03T14:10:28;14.80;44.90
76293;DHT22;67256;51.154;4.164;2023-05-03T14:12:53;14.70;44.10
76293;DHT22;67256;51.154;4.164;2023-05-03T14:15:19;14.70;44.90
76293;DHT22;67256;51.154;4.164;2023-05-03T14:17:48;14.60;46.00
76293;DHT22;67256;51.154;4.164;2023-05-03T14:20:14;14.80;46.20
76293;DHT22;67256;51.154;4.164;2023-05-03T14:22:42;14.90;45.50
76293;DHT22;67256;51.154;4.164;2023-05-03T14:25:08;14.90;45.90
76293;DHT22;67256;51.154;4.164;2023-05-03T14:27:35;15.00;46.10
76293;DHT22;67256;51.154;4.164;2023-05-03T14:30:01;15.00;45.50
76293;DHT22;67256;51.154;4.164;2023-05-03T14:32:26;15.10;45.10
76293;DHT22;67256;51.154;4.164;2023-05-03T14:34:52;15.00;45.40
76293;DHT22;67256;51.154;4.164;2023-05-03T14:37:18;14.90;44.50
76293;DHT22;67256;51.154;4.164;2023-05-03T14:39:44;14.90;46.00
76293;DHT22;67256;51.154;4.164;2023-05-03T14:42:10;15.00;45.80
76293;DHT22;67256;51.154;4.164;2023-05-03T14:44:36;15.10;45.60
76293;DHT22;67256;51.154;4.164;2023-05-03T14:47:02;15.10;45.00
76293;DHT22;67256;51.154;4.164;2023-05-03T14:49:28;15.10;43.90
76293;DHT22;67256;51.154;4.164;2023-05-03T14:51:54;15.10;45.10
76293;DHT22;67256;51.154;4.164;2023-05-03T14:54:20;15.00;43.70
76293;DHT22;67256;51.154;4.164;2023-05-03T14:56:48;15.00;43.70
76293;DHT22;67256;51.154;4.164;2023-05-03T14:59:14;15.10;45.10
76293;DHT22;67256;51.154;4.164;2023-05-03T15:01:39;15.30;46.00
76293;DHT22;67256;51.154;4.164;2023-05-03T15:04:05;15.20;44.10
76293;DHT22;67256;51.154;4.164;2023-05-03T15:06:35;15.20;44.40
76293;DHT22;67256;51.154;4.164;2023-05-03T15:09:04;15.10;44.40
76293;DHT22;67256;51.154;4.164;2023-05-03T15:11:30;15.10;43.10
76293;DHT22;67256;51.154;4.164;2023-05-03T15:13:55;15.20;44.70
76293;DHT22;67256;51.154;4.164;2023-05-03T15:16:21;15.10;44.20
76293;DHT22;67256;51.154;4.164;2023-05-03T15:18:47;15.10;44.60
76293;DHT22;67256;51.154;4.164;2023-05-03T15:21:14;15.10;44.70
76293;DHT22;67256;51.154;4.164;2023-05-03T15:23:40;15.20;45.40
76293;DHT22;67256;51.154;4.164;2023-05-03T15:26:06;15.20;43.90
76293;DHT22;67256;51.154;4.164;2023-05-03T15:28:32;15.20;42.90
76293;DHT22;67256;51.154;4.164;2023-05-03T15:30:58;15.20;42.90
76293;DHT22;67256;51.154;4.164;2023-05-03T15:33:23;15.20;42.40
76293;DHT22;67256;51.154;4.164;2023-05-03T15:35:49;15.20;43.00
76293;DHT22;67256;51.154;4.164;2023-05-03T15:38:19;15.30;42.80
76293;DHT22;67256;51.154;4.164;2023-05-03T15:40:44;15.40;42.90
76293;DHT22;67256;51.154;4.164;2023-05-03T15:43:10;15.50;43.60
76293;DHT22;67256;51.154;4.164;2023-05-03T15:45:36;15.50;43.40
76293;DHT22;67256;51.154;4.164;2023-05-03T15:48:02;15.50;42.40
76293;DHT22;67256;51.154;4.164;2023-05-03T15:50:29;15.50;42.20
76293;DHT22;67256;51.154;4.164;2023-05-03T15:52:55;15.50;42.30
76293;DHT22;67256;51.154;4.164;2023-05-03T15:55:23;15.60;43.40
76293;DHT22;67256;51.154;4.164;2023-05-03T15:57:49;15.80;43.30
76293;DHT22;67256;51.154;4.164;2023-05-03T16:00:16;15.70;43.20
76293;DHT22;67256;51.154;4.164;2023-05-03T16:02:47;15.70;42.80